Time;durP1;ratioP1;P1;durP2;ratioP2;P2;SDS_P1;SDS_P2;PMS_P1;PMS_P2;Temp;Humidity;BMP_temperature;BMP_pressure;BME280_temperature;BME280_humidity;BME280_pressure;Samples;Min_cycle;Max_cycle;Signal;HPM_P1;HPM_P2
2023/03/30 00:00:33;;;;;;;;;;;24.70;99.90;;;;;;4925576;23;19923;-47
2023/03/30 00:03:01;;;;;;;;;;;24.70;99.90;;;;;;4899173;29;20001;-47
2023/03/30 00:05:30;;;;;;;;;;;24.70;99.90;;;;;;4899361;29;19956;-47
2023/03/30 00:07:55;;;;;;;;;;;24.70;99.90;;;;;;4899215;29;19994;-47
2023/03/30 00:10:21;;;;;;;;;;;24.70;99.90;;;;;;4899438;29;19950;-47
2023/03/30 00:12:49;;;;;;;;;;;24.70;99.90;;;;;;4899194;29;19908;-47
2023/03/30 00:15:16;;;;;;;;;;;24.70;99.90;;;;;;4897791;29;19908;-47
2023/03/30 00:17:42;;;;;;;;;;;24.70;99.90;;;;;;4898925;29;19916;-47
2023/03/30 00:20:10;;;;;;;;;;;24.70;99.90;;;;;;4899365;29;19930;-47
2023/03/30 00:22:40;;;;;;;;;;;24.70;99.90;;;;;;4897940;29;19907;-47
2023/03/30 00:25:07;;;;;;;;;;;24.60;99.90;;;;;;4899016;29;19922;-47
2023/03/30 00:27:33;;;;;;;;;;;24.60;99.90;;;;;;4898791;29;19911;-47
2023/03/30 00:29:59;;;;;;;;;;;24.60;99.90;;;;;;4928478;29;19907;-47
2023/03/30 00:32:24;;;;;;;;;;;24.60;99.90;;;;;;4898634;29;19958;-47
2023/03/30 00:34:50;;;;;;;;;;;24.60;99.90;;;;;;4898816;29;20363;-47
2023/03/30 00:37:16;;;;;;;;;;;24.60;99.90;;;;;;4898634;29;20260;-47
2023/03/30 00:39:43;;;;;;;;;;;24.60;99.90;;;;;;4928988;29;19918;-47
2023/03/30 00:42:18;;;;;;;;;;;24.60;99.90;;;;;;4898984;29;19914;-47
2023/03/30 00:45:03;;;;;;;;;;;24.60;99.90;;;;;;4898602;29;19915;-47
2023/03/30 00:47:29;;;;;;;;;;;24.50;99.90;;;;;;4898617;29;19990;-47
2023/03/30 00:49:55;;;;;;;;;;;24.60;99.90;;;;;;4898399;29;19908;-47
2023/03/30 00:52:23;;;;;;;;;;;24.50;99.90;;;;;;4898722;29;19907;-47
2023/03/30 00:54:54;;;;;;;;;;;24.50;99.90;;;;;;4896641;29;19907;-47
2023/03/30 00:57:21;;;;;;;;;;;24.50;99.90;;;;;;4898806;29;19907;-47
2023/03/30 00:59:49;;;;;;;;;;;24.50;99.90;;;;;;4915555;23;20022;-52
2023/03/30 01:02:15;;;;;;;;;;;24.50;99.90;;;;;;4917197;29;19910;-52
2023/03/30 01:04:41;;;;;;;;;;;24.50;99.90;;;;;;4917251;29;19922;-52
2023/03/30 01:07:11;;;;;;;;;;;24.50;99.90;;;;;;4917538;29;20307;-55
2023/03/30 01:09:38;;;;;;;;;;;24.50;99.90;;;;;;4917098;29;19907;-56
2023/03/30 01:12:04;;;;;;;;;;;24.50;99.90;;;;;;4917385;29;19914;-52
2023/03/30 01:14:30;;;;;;;;;;;24.50;99.90;;;;;;4916969;29;19907;-52
2023/03/30 01:17:15;;;;;;;;;;;24.50;99.90;;;;;;4916895;29;19917;-53
2023/03/30 01:20:08;;;;;;;;;;;24.50;99.90;;;;;;4917003;29;19907;-53
2023/03/30 01:22:57;;;;;;;;;;;24.40;99.90;;;;;;4916785;29;19955;-54
2023/03/30 01:25:23;;;;;;;;;;;24.40;99.90;;;;;;4916637;29;19915;-53
2023/03/30 01:28:01;;;;;;;;;;;24.40;99.90;;;;;;4916647;29;19907;-53
2023/03/30 01:30:32;;;;;;;;;;;24.40;99.90;;;;;;4916654;29;19907;-53
2023/03/30 01:33:16;;;;;;;;;;;24.40;99.90;;;;;;4916677;29;19957;-52
2023/03/30 01:36:00;;;;;;;;;;;24.40;99.90;;;;;;4916736;29;19926;-54
2023/03/30 01:38:34;;;;;;;;;;;24.40;99.90;;;;;;4916613;29;20275;-53
2023/03/30 01:41:08;;;;;;;;;;;24.40;99.90;;;;;;4916634;29;19931;-53
2023/03/30 01:43:34;;;;;;;;;;;24.40;99.90;;;;;;4916554;29;19919;-53
2023/03/30 01:46:17;;;;;;;;;;;24.30;99.90;;;;;;4930948;29;19914;-53
2023/03/30 01:48:48;;;;;;;;;;;24.30;99.90;;;;;;4916901;29;19954;-52
2023/03/30 01:51:27;;;;;;;;;;;24.30;99.90;;;;;;4916377;29;19914;-53
2023/03/30 01:53:58;;;;;;;;;;;24.30;99.90;;;;;;4916382;29;19907;-52
2023/03/30 01:56:38;;;;;;;;;;;24.30;99.90;;;;;;4916368;29;19954;-53
2023/03/30 01:59:06;;;;;;;;;;;24.30;99.90;;;;;;4916926;29;19914;-52
2023/03/30 02:01:33;;;;;;;;;;;24.30;99.90;;;;;;4916101;29;19926;-52
2023/03/30 02:04:00;;;;;;;;;;;24.30;99.90;;;;;;4916370;29;20283;-52
2023/03/30 02:06:28;;;;;;;;;;;24.30;99.90;;;;;;4916173;29;19907;-52
2023/03/30 02:08:54;;;;;;;;;;;24.30;99.90;;;;;;4916244;29;19906;-53
2023/03/30 02:11:22;;;;;;;;;;;24.20;99.90;;;;;;4916535;29;20013;-53
2023/03/30 02:13:50;;;;;;;;;;;24.20;99.90;;;;;;4916553;29;20283;-53
2023/03/30 02:16:19;;;;;;;;;;;24.20;99.90;;;;;;4916050;29;19907;-53
2023/03/30 02:18:45;;;;;;;;;;;24.20;99.90;;;;;;4916398;29;19914;-53
2023/03/30 02:21:11;;;;;;;;;;;24.20;99.90;;;;;;4916165;29;20034;-53
2023/03/30 02:23:39;;;;;;;;;;;24.20;99.90;;;;;;4916116;29;19965;-52
2023/03/30 02:26:07;;;;;;;;;;;24.20;99.90;;;;;;4916183;29;19907;-53
2023/03/30 02:28:33;;;;;;;;;;;24.20;99.90;;;;;;4916369;29;19938;-53
2023/03/30 02:30:58;;;;;;;;;;;24.10;99.90;;;;;;4916009;29;19975;-53
2023/03/30 02:33:35;;;;;;;;;;;24.10;99.90;;;;;;4916188;29;19907;-54
2023/03/30 02:36:04;;;;;;;;;;;24.10;99.90;;;;;;4916304;29;19907;-54
2023/03/30 02:38:32;;;;;;;;;;;24.10;99.90;;;;;;4916165;29;20359;-53
2023/03/30 02:41:10;;;;;;;;;;;24.10;99.90;;;;;;4916007;29;20278;-54
2023/03/30 02:43:38;;;;;;;;;;;24.10;99.90;;;;;;4916039;29;19915;-53
2023/03/30 02:46:10;;;;;;;;;;;24.10;99.90;;;;;;4930315;29;19907;-52
2023/03/30 02:48:40;;;;;;;;;;;24.10;99.90;;;;;;4916187;29;19907;-52
2023/03/30 02:51:24;;;;;;;;;;;24.10;99.90;;;;;;4915824;29;19907;-52
2023/03/30 02:54:04;;;;;;;;;;;24.10;99.90;;;;;;4917762;29;19989;-52
2023/03/30 02:56:39;;;;;;;;;;;24.00;99.90;;;;;;4919724;29;20005;-52
2023/03/30 02:59:07;;;;;;;;;;;24.00;99.90;;;;;;4919631;29;20347;-52
2023/03/30 03:01:36;;;;;;;;;;;24.00;99.90;;;;;;4920064;29;19974;-52
2023/03/30 03:04:03;;;;;;;;;;;24.00;99.90;;;;;;4919668;29;19950;-52
2023/03/30 03:06:31;;;;;;;;;;;24.00;99.90;;;;;;4919379;29;19907;-52
2023/03/30 03:08:57;;;;;;;;;;;24.00;99.90;;;;;;4919278;29;19994;-52
2023/03/30 03:11:22;;;;;;;;;;;24.00;99.90;;;;;;4919345;29;19970;-53
2023/03/30 03:13:48;;;;;;;;;;;23.90;99.90;;;;;;4919331;29;19907;-52
2023/03/30 03:16:15;;;;;;;;;;;23.90;99.90;;;;;;4933483;29;19953;-52
2023/03/30 03:18:40;;;;;;;;;;;23.90;99.90;;;;;;4919309;29;19907;-52
2023/03/30 03:21:07;;;;;;;;;;;23.90;99.90;;;;;;4919095;29;19907;-52
2023/03/30 03:23:33;;;;;;;;;;;23.90;99.90;;;;;;4919134;29;20249;-53
2023/03/30 03:25:59;;;;;;;;;;;23.90;99.90;;;;;;4933744;29;20260;-53
2023/03/30 03:28:25;;;;;;;;;;;23.90;99.90;;;;;;4906586;29;19989;-53
2023/03/30 03:30:50;;;;;;;;;;;23.90;99.90;;;;;;4918929;29;19998;-53
2023/03/30 03:33:19;;;;;;;;;;;23.90;99.90;;;;;;4918882;29;20043;-52
2023/03/30 03:35:44;;;;;;;;;;;23.90;99.90;;;;;;4918830;29;19930;-53
2023/03/30 03:38:10;;;;;;;;;;;23.90;99.90;;;;;;4918781;29;20351;-52
2023/03/30 03:40:36;;;;;;;;;;;23.90;99.90;;;;;;4919002;29;19907;-53
2023/03/30 03:43:02;;;;;;;;;;;23.90;99.90;;;;;;4918866;29;19907;-52
2023/03/30 03:45:27;;;;;;;;;;;23.90;99.90;;;;;;4918526;29;19955;-53
2023/03/30 03:47:53;;;;;;;;;;;23.80;99.90;;;;;;4918614;29;19907;-53
2023/03/30 03:50:19;;;;;;;;;;;23.80;99.90;;;;;;4918711;29;19946;-53
2023/03/30 03:52:45;;;;;;;;;;;23.80;99.90;;;;;;4918362;29;19915;-53
2023/03/30 03:55:11;;;;;;;;;;;23.80;99.90;;;;;;4918634;29;19907;-54
2023/03/30 03:57:37;;;;;;;;;;;23.80;99.90;;;;;;4918712;29;20271;-53
2023/03/30 04:00:03;;;;;;;;;;;23.80;99.90;;;;;;4919031;29;19929;-53
2023/03/30 04:02:29;;;;;;;;;;;23.80;99.90;;;;;;4918526;29;19907;-53
2023/03/30 04:04:56;;;;;;;;;;;23.80;99.90;;;;;;4917087;29;19919;-53
2023/03/30 04:07:24;;;;;;;;;;;23.80;99.90;;;;;;4918227;29;19930;-53
2023/03/30 04:09:50;;;;;;;;;;;23.80;99.90;;;;;;4918282;29;19957;-55
2023/03/30 04:12:15;;;;;;;;;;;23.70;99.90;;;;;;4933070;29;19950;-53
2023/03/30 04:14:41;;;;;;;;;;;23.70;99.90;;;;;;4932801;29;20279;-53
2023/03/30 04:17:06;;;;;;;;;;;23.70;99.90;;;;;;4918194;29;19937;-54
2023/03/30 04:19:32;;;;;;;;;;;23.70;99.90;;;;;;4918124;29;19907;-53
2023/03/30 04:21:58;;;;;;;;;;;23.70;99.90;;;;;;4918121;29;19977;-53
2023/03/30 04:24:26;;;;;;;;;;;23.70;99.90;;;;;;4917604;29;19922;-53
2023/03/30 04:26:52;;;;;;;;;;;23.70;99.90;;;;;;4918050;29;19994;-53
2023/03/30 04:29:19;;;;;;;;;;;23.70;99.90;;;;;;4917850;29;20452;-53
2023/03/30 04:31:45;;;;;;;;;;;23.70;99.90;;;;;;4917770;29;19915;-53
2023/03/30 04:34:14;;;;;;;;;;;23.70;99.90;;;;;;4918023;29;20343;-53
2023/03/30 04:36:42;;;;;;;;;;;23.70;99.90;;;;;;4917880;29;19907;-54
2023/03/30 04:39:10;;;;;;;;;;;23.70;99.90;;;;;;4932336;29;20299;-54
2023/03/30 04:41:36;;;;;;;;;;;23.70;99.90;;;;;;4918067;29;20319;-53
2023/03/30 04:44:03;;;;;;;;;;;23.70;99.90;;;;;;4917597;29;19919;-54
2023/03/30 04:46:29;;;;;;;;;;;23.70;99.90;;;;;;4905118;29;20010;-53
2023/03/30 04:48:55;;;;;;;;;;;23.70;99.90;;;;;;4917656;29;19946;-53
2023/03/30 04:51:21;;;;;;;;;;;23.70;99.90;;;;;;4917435;29;19914;-53
2023/03/30 04:53:46;;;;;;;;;;;23.70;99.90;;;;;;4917401;29;19907;-54
2023/03/30 04:56:12;;;;;;;;;;;23.70;99.90;;;;;;4917377;29;19914;-54
2023/03/30 04:58:38;;;;;;;;;;;23.70;99.90;;;;;;4917574;29;19907;-53
2023/03/30 05:01:03;;;;;;;;;;;23.70;99.90;;;;;;4916959;29;20426;-53
2023/03/30 05:03:29;;;;;;;;;;;23.60;99.90;;;;;;4917364;29;20367;-53
2023/03/30 05:05:55;;;;;;;;;;;23.60;99.90;;;;;;4917212;29;19911;-53
2023/03/30 05:08:23;;;;;;;;;;;23.60;99.90;;;;;;4917041;29;20030;-54
2023/03/30 05:10:48;;;;;;;;;;;23.60;99.90;;;;;;4931672;29;19942;-53
2023/03/30 05:13:14;;;;;;;;;;;23.60;99.90;;;;;;4917059;29;19907;-53
2023/03/30 05:15:40;;;;;;;;;;;23.60;99.90;;;;;;4931384;29;19907;-53
2023/03/30 05:18:06;;;;;;;;;;;23.60;99.90;;;;;;4917080;29;19907;-53
2023/03/30 05:20:32;;;;;;;;;;;23.60;99.90;;;;;;4912562;29;19998;-52
2023/03/30 05:22:57;;;;;;;;;;;23.60;99.90;;;;;;4916187;29;19907;-53
2023/03/30 05:25:23;;;;;;;;;;;23.60;99.90;;;;;;4916791;29;19919;-53
2023/03/30 05:27:48;;;;;;;;;;;23.60;99.90;;;;;;4916697;29;20002;-53
2023/03/30 05:30:14;;;;;;;;;;;23.60;99.90;;;;;;4916746;29;20021;-52
2023/03/30 05:32:40;;;;;;;;;;;23.60;99.90;;;;;;4916664;29;19954;-53
2023/03/30 05:35:06;;;;;;;;;;;23.60;99.90;;;;;;4916771;29;20010;-52
2023/03/30 05:37:32;;;;;;;;;;;23.60;99.90;;;;;;4916620;29;19907;-52
2023/03/30 05:39:57;;;;;;;;;;;23.50;99.90;;;;;;4916495;29;19930;-53
2023/03/30 05:42:23;;;;;;;;;;;23.50;99.90;;;;;;4916645;29;20267;-53
2023/03/30 05:44:48;;;;;;;;;;;23.50;99.90;;;;;;4916372;29;19959;-54
2023/03/30 05:47:15;;;;;;;;;;;23.50;99.90;;;;;;4916358;29;20041;-54
2023/03/30 05:49:41;;;;;;;;;;;23.50;99.90;;;;;;4916470;29;19918;-55
2023/03/30 05:52:06;;;;;;;;;;;23.50;99.90;;;;;;4916489;29;19907;-54
2023/03/30 05:54:32;;;;;;;;;;;23.50;99.90;;;;;;4916294;29;20362;-54
2023/03/30 05:56:58;;;;;;;;;;;23.50;99.90;;;;;;4916389;29;19907;-55
2023/03/30 05:59:24;;;;;;;;;;;23.50;99.90;;;;;;4916234;29;19915;-54
2023/03/30 06:01:50;;;;;;;;;;;23.50;99.90;;;;;;4916258;29;19998;-54
2023/03/30 06:04:16;;;;;;;;;;;23.50;99.90;;;;;;4916070;29;20059;-54
2023/03/30 06:06:42;;;;;;;;;;;23.50;99.90;;;;;;4916486;29;19946;-55
2023/03/30 06:09:07;;;;;;;;;;;23.40;99.90;;;;;;4916159;29;19959;-54
2023/03/30 06:11:33;;;;;;;;;;;23.40;99.90;;;;;;4916122;29;19907;-54
2023/03/30 06:13:58;;;;;;;;;;;23.50;99.90;;;;;;4916160;29;19907;-53
2023/03/30 06:16:24;;;;;;;;;;;23.50;99.90;;;;;;4915958;29;20340;-53
2023/03/30 06:18:51;;;;;;;;;;;23.50;99.90;;;;;;4916032;29;19907;-54
2023/03/30 06:21:16;;;;;;;;;;;23.50;99.90;;;;;;4916197;29;19907;-54
2023/03/30 06:23:42;;;;;;;;;;;23.40;99.90;;;;;;4916141;29;19959;-54
2023/03/30 06:26:08;;;;;;;;;;;23.40;99.90;;;;;;4916099;29;20316;-53
2023/03/30 06:28:34;;;;;;;;;;;23.40;99.90;;;;;;4917646;29;20401;-53
2023/03/30 06:31:01;;;;;;;;;;;23.40;99.90;;;;;;4919878;29;19915;-53
2023/03/30 06:33:27;;;;;;;;;;;23.40;99.90;;;;;;4919795;29;19913;-54
2023/03/30 06:35:53;;;;;;;;;;;23.40;99.90;;;;;;4919802;29;20307;-53
2023/03/30 06:38:20;;;;;;;;;;;23.40;99.90;;;;;;4919390;29;19963;-53
2023/03/30 06:40:46;;;;;;;;;;;23.40;99.90;;;;;;4919631;29;19953;-54
2023/03/30 06:43:19;;;;;;;;;;;23.40;99.90;;;;;;4919938;29;19950;-53
2023/03/30 06:45:48;;;;;;;;;;;23.40;99.90;;;;;;4919678;29;20309;-54
2023/03/30 06:48:14;;;;;;;;;;;23.40;99.90;;;;;;4919813;29;20316;-55
2023/03/30 06:50:40;;;;;;;;;;;23.40;99.90;;;;;;4919564;29;19963;-54
2023/03/30 06:53:05;;;;;;;;;;;23.40;99.90;;;;;;4919238;29;19910;-54
2023/03/30 06:55:31;;;;;;;;;;;23.40;99.90;;;;;;4919391;29;19930;-54
2023/03/30 06:57:57;;;;;;;;;;;23.40;99.90;;;;;;4919315;29;19954;-53
2023/03/30 07:00:22;;;;;;;;;;;23.40;99.90;;;;;;4919124;29;19926;-55
2023/03/30 07:02:48;;;;;;;;;;;23.40;99.90;;;;;;4919423;29;19907;-53
2023/03/30 07:05:14;;;;;;;;;;;23.40;99.90;;;;;;4919557;29;20028;-54
2023/03/30 07:07:40;;;;;;;;;;;23.50;99.90;;;;;;4919198;29;19907;-54
2023/03/30 07:10:09;;;;;;;;;;;23.40;99.90;;;;;;4919047;29;19938;-54
2023/03/30 07:12:35;;;;;;;;;;;23.40;99.90;;;;;;4919243;29;19946;-55
2023/03/30 07:15:01;;;;;;;;;;;23.40;99.90;;;;;;4919176;29;19914;-55
2023/03/30 07:17:26;;;;;;;;;;;23.40;99.90;;;;;;4918896;29;19907;-54
2023/03/30 07:19:53;;;;;;;;;;;23.40;99.90;;;;;;4918905;29;19907;-53
2023/03/30 07:22:18;;;;;;;;;;;23.40;99.90;;;;;;4918959;29;19911;-54
2023/03/30 07:24:44;;;;;;;;;;;23.50;99.90;;;;;;4919037;29;19922;-54
2023/03/30 07:27:10;;;;;;;;;;;23.40;99.90;;;;;;4918916;29;20267;-54
2023/03/30 07:29:35;;;;;;;;;;;23.40;99.90;;;;;;4918695;29;20989;-54
2023/03/30 07:32:02;;;;;;;;;;;23.40;99.90;;;;;;4918780;29;19907;-55
2023/03/30 07:34:28;;;;;;;;;;;23.50;99.90;;;;;;4918719;29;19914;-53
2023/03/30 07:36:54;;;;;;;;;;;23.50;99.90;;;;;;4918850;29;20002;-53
2023/03/30 07:39:19;;;;;;;;;;;23.50;99.90;;;;;;4918346;29;19907;-53
2023/03/30 07:41:45;;;;;;;;;;;23.50;99.90;;;;;;4918687;29;19918;-53
2023/03/30 07:44:10;;;;;;;;;;;23.50;99.90;;;;;;4918418;29;19915;-53
2023/03/30 07:46:36;;;;;;;;;;;23.50;99.90;;;;;;4918231;29;19911;-53
2023/03/30 07:49:02;;;;;;;;;;;23.60;99.90;;;;;;4918777;29;19907;-53
2023/03/30 07:51:28;;;;;;;;;;;23.60;99.90;;;;;;4918315;29;19914;-53
2023/03/30 07:53:53;;;;;;;;;;;23.60;99.90;;;;;;4918338;29;19908;-53
2023/03/30 07:56:19;;;;;;;;;;;23.60;99.90;;;;;;4918392;29;19914;-53
2023/03/30 07:58:45;;;;;;;;;;;23.60;99.90;;;;;;4918718;29;19911;-55
2023/03/30 08:01:12;;;;;;;;;;;23.60;99.90;;;;;;4917811;29;19997;-54
2023/03/30 08:03:37;;;;;;;;;;;23.60;99.90;;;;;;4918269;29;20033;-53
2023/03/30 08:06:04;;;;;;;;;;;23.60;99.90;;;;;;4918172;29;20460;-54
2023/03/30 08:08:30;;;;;;;;;;;23.60;99.90;;;;;;4917694;29;19907;-55
2023/03/30 08:10:56;;;;;;;;;;;23.70;99.90;;;;;;4917971;29;19918;-55
2023/03/30 08:13:22;;;;;;;;;;;23.70;99.90;;;;;;4917970;29;19911;-54
2023/03/30 08:15:48;;;;;;;;;;;23.70;99.90;;;;;;4918104;29;19913;-55
2023/03/30 08:18:14;;;;;;;;;;;23.70;99.90;;;;;;4918043;29;19907;-55
2023/03/30 08:20:40;;;;;;;;;;;23.70;99.90;;;;;;4917851;29;19907;-56
2023/03/30 08:23:06;;;;;;;;;;;23.70;99.90;;;;;;4932133;29;20248;-53
2023/03/30 08:25:32;;;;;;;;;;;23.80;99.90;;;;;;4917978;29;19958;-53
2023/03/30 08:27:58;;;;;;;;;;;23.70;99.90;;;;;;4917706;29;19957;-54
2023/03/30 08:30:23;;;;;;;;;;;23.80;99.90;;;;;;4917624;29;19907;-53
2023/03/30 08:32:51;;;;;;;;;;;23.80;99.90;;;;;;4917521;29;19907;-54
2023/03/30 08:35:17;;;;;;;;;;;23.80;99.90;;;;;;4917719;29;19907;-54
2023/03/30 08:37:43;;;;;;;;;;;23.80;99.90;;;;;;4917822;29;19962;-56
2023/03/30 08:40:10;;;;;;;;;;;23.90;99.90;;;;;;4917507;29;19911;-54
2023/03/30 08:42:39;;;;;;;;;;;23.90;99.90;;;;;;4917736;29;19965;-55
2023/03/30 08:45:07;;;;;;;;;;;23.90;99.90;;;;;;4917315;29;19919;-54
2023/03/30 08:47:38;;;;;;;;;;;23.90;99.90;;;;;;4917397;29;19907;-54
2023/03/30 08:50:15;;;;;;;;;;;23.90;99.90;;;;;;4917168;29;19907;-54
2023/03/30 08:52:41;;;;;;;;;;;23.90;99.90;;;;;;4916803;29;19911;-55
2023/03/30 08:55:29;;;;;;;;;;;23.90;99.90;;;;;;4917284;29;19907;-56
2023/03/30 08:58:00;;;;;;;;;;;23.90;99.90;;;;;;4931565;29;19911;-55
2023/03/30 09:00:29;;;;;;;;;;;23.90;99.90;;;;;;4916998;29;19930;-55
2023/03/30 09:03:18;;;;;;;;;;;24.00;99.90;;;;;;4917005;29;19907;-56
2023/03/30 09:05:55;;;;;;;;;;;23.90;99.90;;;;;;4906073;29;19915;-56
2023/03/30 09:08:28;;;;;;;;;;;24.00;99.90;;;;;;4916890;29;19907;-55
2023/03/30 09:11:00;;;;;;;;;;;24.00;99.90;;;;;;4917030;29;20291;-55
2023/03/30 09:13:32;;;;;;;;;;;24.00;99.90;;;;;;4917088;29;19999;-55
2023/03/30 09:16:10;;;;;;;;;;;24.00;99.90;;;;;;4916940;29;19914;-55
2023/03/30 09:18:40;;;;;;;;;;;24.00;99.90;;;;;;4905308;29;19914;-55
2023/03/30 09:21:08;;;;;;;;;;;24.00;99.90;;;;;;4916917;29;19949;-55
2023/03/30 09:23:34;;;;;;;;;;;24.10;99.90;;;;;;4916681;29;19915;-56
2023/03/30 09:26:01;;;;;;;;;;;24.10;99.90;;;;;;4916823;29;19907;-55
2023/03/30 09:28:47;;;;;;;;;;;24.10;99.90;;;;;;4916777;29;19907;-55
2023/03/30 09:31:12;;;;;;;;;;;24.10;99.90;;;;;;4916454;29;19918;-55
2023/03/30 09:33:45;;;;;;;;;;;24.10;99.90;;;;;;4916582;29;19907;-55
2023/03/30 09:36:22;;;;;;;;;;;24.10;99.90;;;;;;4916636;29;19907;-55
2023/03/30 09:38:48;;;;;;;;;;;24.10;99.90;;;;;;4916553;29;20264;-55
2023/03/30 09:41:32;;;;;;;;;;;24.10;99.90;;;;;;4916578;29;19950;-54
2023/03/30 09:43:58;;;;;;;;;;;24.20;99.90;;;;;;4916438;29;19963;-55
2023/03/30 09:46:24;;;;;;;;;;;24.20;99.90;;;;;;4916199;29;19907;-55
2023/03/30 09:48:50;;;;;;;;;;;24.20;99.90;;;;;;4916754;29;19907;-56
2023/03/30 09:51:26;;;;;;;;;;;24.20;99.90;;;;;;4916411;29;20308;-56
2023/03/30 09:53:57;;;;;;;;;;;24.20;99.90;;;;;;4916517;29;19907;-57
2023/03/30 09:56:48;;;;;;;;;;;24.30;99.90;;;;;;4916517;29;19994;-56
2023/03/30 09:59:27;;;;;;;;;;;24.30;99.90;;;;;;4916382;29;19907;-56
2023/03/30 10:02:07;;;;;;;;;;;24.30;99.90;;;;;;4903292;29;20002;-57
2023/03/30 10:04:33;;;;;;;;;;;24.30;99.90;;;;;;4915783;29;19915;-53
2023/03/30 10:06:58;;;;;;;;;;;24.30;99.90;;;;;;4916389;29;19930;-56
2023/03/30 10:09:24;;;;;;;;;;;24.30;99.90;;;;;;4916131;29;20379;-56
2023/03/30 10:11:51;;;;;;;;;;;24.40;99.90;;;;;;4916564;29;19911;-57
2023/03/30 10:14:16;;;;;;;;;;;24.40;99.90;;;;;;4916316;29;19942;-57
2023/03/30 10:16:42;;;;;;;;;;;24.40;99.90;;;;;;4915978;29;19954;-57
2023/03/30 10:19:15;;;;;;;;;;;24.50;99.90;;;;;;4916270;29;19918;-54
2023/03/30 10:21:45;;;;;;;;;;;24.50;99.90;;;;;;4915780;29;19911;-53
2023/03/30 10:24:13;;;;;;;;;;;24.50;99.90;;;;;;4915954;29;19937;-56
2023/03/30 10:26:43;;;;;;;;;;;24.50;99.90;;;;;;4916313;29;20247;-57
2023/03/30 10:29:11;;;;;;;;;;;24.60;99.90;;;;;;4916234;29;19957;-54
2023/03/30 10:31:37;;;;;;;;;;;24.60;99.90;;;;;;4916008;29;19947;-56
2023/03/30 10:34:13;;;;;;;;;;;24.60;99.90;;;;;;4916046;29;19907;-56
2023/03/30 10:36:39;;;;;;;;;;;24.60;99.90;;;;;;4916112;29;19998;-53
2023/03/30 10:39:07;;;;;;;;;;;24.70;99.90;;;;;;4915976;29;19911;-57
2023/03/30 10:41:35;;;;;;;;;;;24.70;99.90;;;;;;4916007;29;19911;-54
2023/03/30 10:44:30;;;;;;;;;;;24.70;99.90;;;;;;4915971;29;19934;-55
2023/03/30 10:47:16;;;;;;;;;;;24.70;99.90;;;;;;4915094;29;19911;-54
2023/03/30 10:50:02;;;;;;;;;;;24.80;99.90;;;;;;4908804;29;19911;-55
2023/03/30 10:52:46;;;;;;;;;;;24.80;99.90;;;;;;4921294;29;19914;-54
2023/03/30 10:55:38;;;;;;;;;;;24.80;99.90;;;;;;4903773;29;19958;-54
2023/03/30 10:58:18;;;;;;;;;;;24.80;99.90;;;;;;4915518;29;20324;-54
2023/03/30 11:00:44;;;;;;;;;;;24.90;99.90;;;;;;4915479;29;19919;-55
2023/03/30 11:03:23;;;;;;;;;;;24.90;99.90;;;;;;4915580;29;19971;-53
2023/03/30 11:05:50;;;;;;;;;;;24.90;99.90;;;;;;4915875;29;20424;-53
2023/03/30 11:08:21;;;;;;;;;;;24.90;99.90;;;;;;4915382;29;20368;-54
2023/03/30 11:10:48;;;;;;;;;;;25.00;99.90;;;;;;4915743;29;20433;-53
2023/03/30 11:13:23;;;;;;;;;;;25.00;99.90;;;;;;4915707;29;20006;-54
2023/03/30 11:16:00;;;;;;;;;;;25.00;99.90;;;;;;4918789;29;19906;-54
2023/03/30 11:18:38;;;;;;;;;;;25.00;99.90;;;;;;4916072;29;19907;-56
2023/03/30 11:21:11;;;;;;;;;;;25.10;99.90;;;;;;4901223;29;19975;-54
2023/03/30 11:23:46;;;;;;;;;;;25.10;99.90;;;;;;4912627;29;19911;-54
2023/03/30 11:26:17;;;;;;;;;;;25.10;99.90;;;;;;4901072;29;19922;-54
2023/03/30 11:28:49;;;;;;;;;;;25.10;99.90;;;;;;4912717;29;19911;-55
2023/03/30 11:31:17;;;;;;;;;;;25.10;99.90;;;;;;4910897;29;19912;-55
2023/03/30 11:33:50;;;;;;;;;;;25.20;99.90;;;;;;4907676;29;19906;-55
2023/03/30 11:36:33;;;;;;;;;;;25.20;99.90;;;;;;4918768;29;19967;-54
2023/03/30 11:38:58;;;;;;;;;;;25.20;99.90;;;;;;4917412;29;19907;-53
2023/03/30 11:41:33;;;;;;;;;;;25.20;99.90;;;;;;4915160;29;20376;-54
2023/03/30 11:43:59;;;;;;;;;;;25.30;99.90;;;;;;4899990;29;19912;-57
2023/03/30 11:46:26;;;;;;;;;;;25.30;99.90;;;;;;4899806;29;20287;-56
2023/03/30 11:49:05;;;;;;;;;;;25.30;99.90;;;;;;4908462;29;19919;-56
2023/03/30 11:51:30;;;;;;;;;;;25.30;99.90;;;;;;4910285;29;20534;-58
2023/03/30 11:54:16;;;;;;;;;;;25.40;99.90;;;;;;4918688;29;19914;-55
2023/03/30 11:57:00;;;;;;;;;;;25.40;99.90;;;;;;4911143;29;19912;-52
2023/03/30 11:59:29;;;;;;;;;;;25.40;99.90;;;;;;4901691;29;20002;-55
2023/03/30 12:02:14;;;;;;;;;;;25.40;99.90;;;;;;4918566;29;19907;-54
2023/03/30 12:05:00;;;;;;;;;;;25.40;99.90;;;;;;4912216;29;19919;-49
2023/03/30 12:07:26;;;;;;;;;;;25.40;99.90;;;;;;4897255;29;19908;-53
2023/03/30 12:09:55;;;;;;;;;;;25.40;99.90;;;;;;4917357;29;19934;-53
2023/03/30 12:12:32;;;;;;;;;;;25.50;99.90;;;;;;4918262;29;20001;-53
2023/03/30 12:15:10;;;;;;;;;;;25.50;99.90;;;;;;4918472;29;19907;-54
2023/03/30 12:17:35;;;;;;;;;;;25.50;99.90;;;;;;4918003;29;19954;-54
2023/03/30 12:20:06;;;;;;;;;;;25.60;99.90;;;;;;4918277;29;20343;-54
2023/03/30 12:22:32;;;;;;;;;;;25.60;99.90;;;;;;4900765;29;19923;-55
2023/03/30 12:25:02;;;;;;;;;;;25.60;99.90;;;;;;4898836;29;19916;-55
2023/03/30 12:27:28;;;;;;;;;;;25.60;99.90;;;;;;4898632;29;19908;-55
2023/03/30 12:29:54;;;;;;;;;;;25.60;99.90;;;;;;4899203;29;20365;-51
2023/03/30 12:32:24;;;;;;;;;;;25.70;99.90;;;;;;4898741;29;19907;-51
2023/03/30 12:34:50;;;;;;;;;;;25.70;99.90;;;;;;4911444;29;19907;-54
2023/03/30 12:37:21;;;;;;;;;;;25.70;99.90;;;;;;4899155;29;20075;-50
2023/03/30 12:39:49;;;;;;;;;;;25.70;99.90;;;;;;4898675;29;19908;-54
2023/03/30 12:42:33;;;;;;;;;;;25.80;99.90;;;;;;4913373;29;20325;-53
2023/03/30 12:45:20;;;;;;;;;;;25.80;99.90;;;;;;4907754;29;20006;-54
2023/03/30 12:48:01;;;;;;;;;;;25.80;99.90;;;;;;4914022;29;19911;-55
2023/03/30 12:50:45;;;;;;;;;;;25.80;99.90;;;;;;4911886;29;20360;-55
2023/03/30 12:53:23;;;;;;;;;;;25.80;99.90;;;;;;4911596;29;20356;-55
2023/03/30 12:55:51;;;;;;;;;;;25.80;99.90;;;;;;4914279;29;20284;-56
2023/03/30 12:58:16;;;;;;;;;;;25.90;99.90;;;;;;4910872;29;19967;-54
2023/03/30 13:01:01;;;;;;;;;;;25.90;99.90;;;;;;4913727;29;20376;-55
2023/03/30 13:03:37;;;;;;;;;;;25.90;99.90;;;;;;4911930;29;20367;-56
2023/03/30 13:06:05;;;;;;;;;;;25.90;99.90;;;;;;4915062;29;19958;-55
2023/03/30 13:08:30;;;;;;;;;;;26.00;99.90;;;;;;4913084;29;19919;-55
2023/03/30 13:11:13;;;;;;;;;;;26.00;99.90;;;;;;4915528;29;19907;-56
2023/03/30 13:13:48;;;;;;;;;;;26.00;99.90;;;;;;4915397;29;19985;-56
2023/03/30 13:16:13;;;;;;;;;;;26.00;99.90;;;;;;4914748;29;20368;-55
2023/03/30 13:18:50;;;;;;;;;;;26.00;99.90;;;;;;4913317;29;19911;-55
2023/03/30 13:21:18;;;;;;;;;;;26.00;99.90;;;;;;4910389;29;19942;-55
2023/03/30 13:23:44;;;;;;;;;;;26.00;99.90;;;;;;4915182;29;19954;-55
2023/03/30 13:26:24;;;;;;;;;;;26.10;99.90;;;;;;4911421;29;19915;-54
2023/03/30 13:28:53;;;;;;;;;;;26.10;99.90;;;;;;4914506;29;19943;-55
2023/03/30 13:31:19;;;;;;;;;;;26.10;99.90;;;;;;4914037;29;20372;-54
2023/03/30 13:33:47;;;;;;;;;;;26.10;99.90;;;;;;4913107;29;19930;-55
2023/03/30 13:36:21;;;;;;;;;;;26.10;99.90;;;;;;4912957;29;19907;-55
2023/03/30 13:39:02;;;;;;;;;;;26.20;99.90;;;;;;4911144;29;19999;-54
2023/03/30 13:41:42;;;;;;;;;;;26.20;99.90;;;;;;4914589;29;20268;-55
2023/03/30 13:44:32;;;;;;;;;;;26.20;99.90;;;;;;4914247;29;19915;-55
2023/03/30 13:46:58;;;;;;;;;;;26.20;99.90;;;;;;4912637;29;19962;-54
2023/03/30 13:49:29;;;;;;;;;;;26.20;99.90;;;;;;4911483;29;20001;-56
2023/03/30 13:52:00;;;;;;;;;;;26.20;99.90;;;;;;4912303;29;19915;-56
2023/03/30 13:54:28;;;;;;;;;;;26.20;99.90;;;;;;4907261;29;19918;-56
2023/03/30 13:56:58;;;;;;;;;;;26.30;99.90;;;;;;4914252;29;19957;-55
2023/03/30 13:59:27;;;;;;;;;;;26.20;99.90;;;;;;4913468;29;20625;-55
2023/03/30 14:01:55;;;;;;;;;;;26.30;99.90;;;;;;4914688;29;19915;-56
2023/03/30 14:04:21;;;;;;;;;;;26.30;99.90;;;;;;4912936;29;20009;-56
2023/03/30 14:06:50;;;;;;;;;;;26.30;99.90;;;;;;4912722;29;19913;-59
2023/03/30 14:09:19;;;;;;;;;;;26.30;99.90;;;;;;4904761;29;20288;-55
2023/03/30 14:11:46;;;;;;;;;;;26.30;99.90;;;;;;4909072;29;19911;-55
2023/03/30 14:14:19;;;;;;;;;;;26.30;99.90;;;;;;4912300;29;19915;-55
2023/03/30 14:16:45;;;;;;;;;;;26.30;99.90;;;;;;4913108;29;19907;-54
2023/03/30 14:19:16;;;;;;;;;;;26.30;99.90;;;;;;4911267;29;19962;-54
2023/03/30 14:21:43;;;;;;;;;;;26.40;99.90;;;;;;4912767;29;20006;-55
2023/03/30 14:24:13;;;;;;;;;;;26.40;99.90;;;;;;4912557;29;19919;-55
2023/03/30 14:26:40;;;;;;;;;;;26.40;99.90;;;;;;4914907;29;19911;-52
2023/03/30 14:29:09;;;;;;;;;;;26.40;99.90;;;;;;4945724;29;19915;-54